Terminal Aerodrome Forecast
Issued by NWS Sterling, VA

Current Version | Previous Version | Graphics & Text | Print | Product List | Glossary On
Versions: 1 2 3 4 5 6 7 8 9 10 11 12 13 14 15 16 17 18 19 20 21 22 23 24 25 26
000
FTUS41 KLWX 180502 AAA
TAFDCA
TAF AMD
KDCA 180502Z 1805/1824 18004KT 1/4SM FG VV001
     FM180700 25005KT 1SM BR OVC008
     FM180900 27004KT P6SM OVC010
     FM181000 28005KT P6SM BKN020
     FM181200 31007KT P6SM BKN060
     FM181400 30010G17KT P6SM SCT060=

USA.gov is the U.S. government's official web portal to all federal, state and local government web resources and services.